Time;durP1;ratioP1;P1;durP2;ratioP2;P2;SDS_P1;SDS_P2;PMS_P1;PMS_P2;Temp;Humidity;BMP_temperature;BMP_pressure;BME280_temperature;BME280_humidity;BME280_pressure;Samples;Min_cycle;Max_cycle;Signal;HPM_P1;HPM_P2
2022/06/06 00:01:57;;;;;;;3.40;1.33;;;17.70;97.50;;;;;;5119422;28;20032;-72
2022/06/06 00:04:23;;;;;;;3.00;1.70;;;17.70;96.70;;;;;;5119397;28;20346;-72
2022/06/06 00:06:51;;;;;;;1.20;1.10;;;17.70;97.20;;;;;;5120029;28;20031;-72
2022/06/06 00:09:17;;;;;;;1.48;1.38;;;17.70;96.80;;;;;;5120383;28;20019;-72
2022/06/06 00:11:43;;;;;;;3.87;1.47;;;17.40;97.20;;;;;;5120784;28;20254;-72
2022/06/06 00:14:09;;;;;;;4.73;1.60;;;17.20;97.50;;;;;;5085520;28;20301;-72
2022/06/06 00:16:35;;;;;;;4.68;1.38;;;16.80;98.20;;;;;;5098870;28;20024;-71
2022/06/06 00:19:03;;;;;;;3.43;1.70;;;16.80;98.50;;;;;;5099937;28;20267;-72
2022/06/06 00:21:30;;;;;;;3.35;2.50;;;16.60;98.90;;;;;;5099249;28;20028;-73
2022/06/06 00:23:59;;;;;;;2.15;1.63;;;16.50;99.20;;;;;;5101124;28;20020;-72
2022/06/06 00:26:26;;;;;;;8.75;2.95;;;16.50;99.40;;;;;;5101215;28;20031;-72
2022/06/06 00:28:51;;;;;;;;;;;16.50;99.40;;;;;;5100475;28;20034;-72
2022/06/06 00:36:46;;;;;;;3.60;2.00;;;16.40;99.80;;;;;;5100254;28;20035;-72
2022/06/06 00:39:14;;;;;;;4.60;2.47;;;16.30;99.90;;;;;;5100026;28;20020;-72
2022/06/06 00:41:42;;;;;;;4.00;2.05;;;16.50;99.90;;;;;;5100310;28;20020;-72
2022/06/06 00:44:15;;;;;;;2.88;2.00;;;16.70;99.90;;;;;;5083732;28;20101;-72
2022/06/06 00:47:10;;;;;;;6.28;2.00;;;16.80;99.40;;;;;;5079041;28;20030;-72
2022/06/06 00:49:58;;;;;;;2.53;2.00;;;16.90;99.70;;;;;;5071955;28;20074;-72
2022/06/06 00:52:35;;;;;;;5.78;2.28;;;17.00;99.20;;;;;;5082586;28;20023;-72
2022/06/06 00:55:16;;;;;;;2.10;1.70;;;17.10;99.30;;;;;;5083590;28;20327;-72
2022/06/06 00:58:07;;;;;;;2.20;1.85;;;17.10;98.60;;;;;;5083950;28;20095;-72
2022/06/06 01:00:33;;;;;;;2.22;2.00;;;17.00;98.80;;;;;;5068429;28;20021;-72
2022/06/06 01:03:01;;;;;;;5.20;2.07;;;17.00;99.00;;;;;;5082058;28;20056;-72
2022/06/06 01:05:27;;;;;;;3.20;2.20;;;16.80;99.30;;;;;;5082505;28;20044;-73
2022/06/06 01:07:53;;;;;;;5.17;2.23;;;16.70;99.50;;;;;;5082626;28;20051;-71
2022/06/06 01:10:20;;;;;;;3.90;2.60;;;16.60;99.70;;;;;;5082446;28;20059;-71
2022/06/06 01:12:47;;;;;;;1.67;1.42;;;16.50;99.90;;;;;;5082877;28;20047;-72
2022/06/06 01:15:13;;;;;;;4.45;2.00;;;16.60;99.90;;;;;;5082514;28;20032;-72
2022/06/06 01:17:51;;;;;;;2.60;2.17;;;16.60;99.80;;;;;;5082289;28;20036;-72
2022/06/06 01:20:47;;;;;;;3.20;2.17;;;16.60;99.80;;;;;;5087729;28;20099;-72
2022/06/06 01:23:53;;;;;;;3.20;2.05;;;16.50;99.90;;;;;;5104118;28;20111;-72
2022/06/06 01:26:48;;;;;;;2.33;1.88;;;16.50;99.90;;;;;;5102835;28;20042;-73
2022/06/06 01:29:26;;;;;;;4.03;2.20;;;16.60;99.80;;;;;;5098823;28;20051;-71
2022/06/06 01:32:15;;;;;;;4.65;2.30;;;16.60;99.70;;;;;;5085384;28;20219;-72
2022/06/06 01:34:42;;;;;;;2.45;2.00;;;16.50;99.90;;;;;;5088559;28;20204;-72
2022/06/06 01:37:38;;;;;;;2.92;2.08;;;16.60;99.90;;;;;;5115947;22;20031;-72
2022/06/06 01:40:08;;;;;;;2.85;2.05;;;16.80;99.80;;;;;;5116827;28;20039;-72
2022/06/06 01:42:47;;;;;;;2.10;1.90;;;16.90;99.40;;;;;;5086229;28;20051;-71
2022/06/06 01:45:45;;;;;;;2.90;2.25;;;16.90;99.40;;;;;;5103245;28;20091;-71
2022/06/06 01:48:23;;;;;;;3.45;2.17;;;17.00;99.60;;;;;;5086231;28;20036;-71
2022/06/06 01:50:49;;;;;;;5.38;2.40;;;17.00;99.60;;;;;;5093097;28;20027;-72
2022/06/06 01:53:20;;;;;;;3.53;2.13;;;17.10;99.50;;;;;;5124533;28;20031;-71
2022/06/06 01:55:48;;;;;;;3.25;2.25;;;17.10;99.00;;;;;;5107481;28;20030;-71
2022/06/06 01:58:22;;;;;;;4.47;2.35;;;17.10;99.30;;;;;;5115733;28;20091;-71
2022/06/06 02:00:48;;;;;;;2.22;2.03;;;17.00;98.90;;;;;;5098411;28;20305;-72
2022/06/06 02:03:14;;;;;;;3.10;2.73;;;16.90;98.90;;;;;;5111162;28;20034;-73
2022/06/06 02:05:40;;;;;;;4.53;2.47;;;16.80;99.20;;;;;;5124368;28;20343;-71
2022/06/06 02:08:07;;;;;;;2.97;2.23;;;16.60;99.60;;;;;;5124183;28;20019;-71
2022/06/06 02:10:33;;;;;;;3.67;2.20;;;16.70;99.70;;;;;;5123845;27;20099;-73
2022/06/06 02:12:59;;;;;;;2.80;2.47;;;16.70;99.30;;;;;;5122658;28;20059;-73
2022/06/06 02:15:26;;;;;;;7.30;2.80;;;16.80;99.20;;;;;;5124266;28;20031;-71
2022/06/06 02:17:53;;;;;;;5.93;2.47;;;16.70;99.30;;;;;;5123757;28;20019;-71
2022/06/06 02:20:20;;;;;;;3.30;2.97;;;16.70;99.30;;;;;;5124087;28;20326;-71
2022/06/06 02:22:46;;;;;;;6.22;3.60;;;16.60;99.30;;;;;;5123325;28;20204;-71
2022/06/06 02:25:13;;;;;;;4.17;2.77;;;16.70;99.80;;;;;;5116501;28;20038;-71
2022/06/06 02:27:40;;;;;;;6.20;2.58;;;16.70;99.70;;;;;;5103527;28;20023;-72
2022/06/06 02:30:08;;;;;;;4.55;3.13;;;16.70;99.50;;;;;;5103379;28;20043;-71
2022/06/06 02:32:34;;;;;;;3.58;2.80;;;16.30;99.90;;;;;;5101449;28;20239;-71
2022/06/06 02:35:00;;;;;;;4.60;2.90;;;16.30;99.90;;;;;;5103300;28;20083;-71
2022/06/06 02:37:26;;;;;;;4.63;3.00;;;16.40;99.90;;;;;;5102420;28;20204;-71
2022/06/06 02:39:51;;;;;;;3.73;3.03;;;16.00;99.90;;;;;;5103264;28;20027;-72
2022/06/06 02:42:17;;;;;;;4.77;3.60;;;15.90;99.90;;;;;;5102470;28;20047;-72
2022/06/06 02:44:43;;;;;;;6.43;3.73;;;15.80;99.90;;;;;;5102065;28;20024;-71
2022/06/06 02:47:08;;;;;;;6.00;3.20;;;15.80;99.90;;;;;;5102874;28;20023;-71
2022/06/06 02:49:35;;;;;;;4.80;3.13;;;15.90;99.90;;;;;;5103170;28;20028;-71
2022/06/06 02:52:01;;;;;;;5.73;3.27;;;15.90;99.90;;;;;;5102276;28;20311;-71
2022/06/06 02:54:27;;;;;;;7.97;3.22;;;16.00;99.90;;;;;;5102278;28;20020;-71
2022/06/06 02:56:54;;;;;;;5.87;3.63;;;16.20;99.90;;;;;;5102620;28;20350;-71
2022/06/06 02:59:20;;;;;;;3.83;2.92;;;16.30;99.90;;;;;;5102889;28;20088;-71
2022/06/06 03:01:46;;;;;;;4.97;2.83;;;16.40;99.90;;;;;;5101047;28;20069;-72
2022/06/06 03:04:12;;;;;;;3.43;3.00;;;16.50;99.90;;;;;;5102788;28;20023;-71
2022/06/06 03:07:24;;;;;;;4.43;2.87;;;16.50;99.90;;;;;;5102759;28;20352;-71
2022/06/06 03:10:14;;;;;;;5.60;2.80;;;16.40;99.90;;;;;;5101737;28;20262;-73
2022/06/06 03:13:17;;;;;;;4.10;2.95;;;16.20;99.90;;;;;;5100188;28;20131;-72
2022/06/06 03:22:41;;;;;;;4.20;3.05;;;16.10;99.90;;;;;;5101777;28;20077;-71
2022/06/06 03:25:20;;;;;;;8.38;3.78;;;16.00;99.90;;;;;;5104198;28;20024;-72
2022/06/06 03:28:24;;;;;;;4.82;3.00;;;16.10;99.90;;;;;;5101302;28;20020;-71
2022/06/06 03:31:27;;;;;;;7.40;3.55;;;16.20;99.90;;;;;;5101036;28;20019;-72
2022/06/06 03:34:01;;;;;;;4.57;3.03;;;16.20;99.90;;;;;;5097556;28;20062;-72
2022/06/06 03:36:34;;;;;;;6.90;3.97;;;16.20;99.90;;;;;;5102486;28;20130;-71
2022/06/06 03:39:24;;;;;;;7.05;3.33;;;16.10;99.90;;;;;;5101050;28;20024;-72
2022/06/06 03:42:09;;;;;;;4.90;2.72;;;16.10;99.90;;;;;;5101377;28;20023;-71
2022/06/06 03:44:51;;;;;;;5.85;2.97;;;16.10;99.90;;;;;;5101247;28;20016;-71
2022/06/06 03:47:38;;;;;;;4.90;3.30;;;15.90;99.90;;;;;;5101184;28;20223;-72
2022/06/06 03:50:39;;;;;;;5.40;3.97;;;15.70;99.90;;;;;;5101291;28;20232;-73
2022/06/06 03:53:16;;;;;;;3.08;2.78;;;15.70;99.90;;;;;;5104329;28;20345;-72
2022/06/06 03:56:17;;;;;;;54.92;9.52;;;15.60;99.90;;;;;;5101472;28;20027;-72
2022/06/06 03:58:43;;;;;;;4.45;3.35;;;15.50;99.90;;;;;;5103917;28;20020;-71
2022/06/06 04:01:10;;;;;;;6.13;3.27;;;15.50;99.90;;;;;;5100435;28;20036;-72
2022/06/06 04:03:37;;;;;;;4.82;3.47;;;15.50;99.90;;;;;;5102300;28;20028;-73
2022/06/06 04:06:03;;;;;;;5.80;3.13;;;15.30;99.90;;;;;;5102305;28;20020;-72
2022/06/06 04:08:32;;;;;;;6.00;3.50;;;15.30;99.90;;;;;;5102160;28;20039;-72
2022/06/06 04:11:22;;;;;;;7.32;3.40;;;15.40;99.90;;;;;;5100227;28;20020;-71
2022/06/06 04:14:09;;;;;;;5.38;4.13;;;15.40;99.90;;;;;;5101995;28;20032;-72
2022/06/06 04:16:49;;;;;;;4.47;3.72;;;15.40;99.90;;;;;;5102231;28;20316;-72
2022/06/06 04:20:22;;;;;;;5.50;3.78;;;15.50;99.90;;;;;;5101090;28;20246;-73
2022/06/06 04:23:15;;;;;;;5.65;3.78;;;15.70;99.90;;;;;;5073996;28;20032;-73
2022/06/06 04:26:26;;;;;;;5.57;3.45;;;15.90;99.90;;;;;;5103481;28;20114;-73
2022/06/06 04:29:36;;;;;;;4.35;3.90;;;15.90;99.90;;;;;;5104915;28;20031;-73
2022/06/06 04:32:33;;;;;;;6.28;3.72;;;15.60;99.90;;;;;;5103500;28;20277;-73
2022/06/06 04:35:13;;;;;;;5.75;3.75;;;15.40;99.90;;;;;;5105966;28;20027;-75
2022/06/06 04:37:53;;;;;;;7.85;4.25;;;15.40;99.90;;;;;;5104697;28;20034;-73
2022/06/06 04:40:42;;;;;;;7.50;3.97;;;15.40;99.90;;;;;;5104572;28;20028;-73
2022/06/06 04:43:37;;;;;;;10.13;4.15;;;15.60;99.90;;;;;;5105774;28;20016;-73
2022/06/06 04:46:04;;;;;;;8.32;4.20;;;15.70;99.90;;;;;;5104763;28;20065;-75
2022/06/06 04:48:31;;;;;;;;;;;15.90;99.90;;;;;;5106342;28;20020;-73
2022/06/06 04:50:56;;;;;;;49.65;7.00;;;15.90;99.90;;;;;;5104033;28;19912;-73
2022/06/06 04:53:23;;;;;;;6.40;4.63;;;16.00;99.90;;;;;;5104869;28;20077;-73
2022/06/06 04:55:50;;;;;;;6.32;4.78;;;16.00;99.90;;;;;;5104571;28;20027;-73
2022/06/06 04:58:16;;;;;;;11.82;4.25;;;16.00;99.90;;;;;;5104900;28;20023;-74
2022/06/06 05:00:42;;;;;;;6.47;4.22;;;16.10;99.90;;;;;;5088055;28;20020;-73
2022/06/06 05:03:08;;;;;;;8.40;4.90;;;16.20;99.90;;;;;;5106071;28;20028;-73
2022/06/06 05:06:00;;;;;;;5.17;4.53;;;16.20;99.90;;;;;;5107004;28;20070;-71
2022/06/06 05:08:54;;;;;;;5.57;4.43;;;16.10;99.90;;;;;;5094100;28;20298;-76
2022/06/06 05:12:05;;;;;;;6.00;4.80;;;16.30;99.90;;;;;;5099915;28;20539;-72
2022/06/06 05:14:59;;;;;;;8.35;4.80;;;16.40;99.90;;;;;;5100124;28;20020;-72
2022/06/06 05:17:59;;;;;;;7.88;4.93;;;16.70;99.90;;;;;;5084204;28;20023;-72
2022/06/06 05:20:46;;;;;;;6.45;4.50;;;16.90;99.90;;;;;;5084634;28;20215;-72
2022/06/06 05:23:43;;;;;;;7.25;3.70;;;17.00;99.90;;;;;;5084718;28;20320;-74
2022/06/06 05:26:37;;;;;;;7.30;5.43;;;17.20;99.90;;;;;;5096914;28;20254;-73
2022/06/06 05:29:40;;;;;;;8.30;7.45;;;17.00;99.90;;;;;;5069298;28;20023;-72
2022/06/06 05:32:13;;;;;;;56.13;9.35;;;17.20;99.90;;;;;;5084522;28;20215;-71
2022/06/06 05:35:01;;;;;;;6.80;4.70;;;17.30;99.90;;;;;;5104618;28;20069;-69
2022/06/06 05:38:18;;;;;;;20.95;6.55;;;17.30;99.90;;;;;;5089304;28;20034;-70
2022/06/06 05:41:16;;;;;;;10.25;6.20;;;17.40;99.90;;;;;;5077083;28;20729;-69
2022/06/06 05:44:28;;;;;;;13.98;11.25;;;17.50;99.90;;;;;;5097006;28;20040;-68
2022/06/06 05:47:05;;;;;;;120.53;73.40;;;17.60;99.90;;;;;;5060146;28;20059;-68
2022/06/06 05:49:53;;;;;;;10.48;5.63;;;17.70;99.90;;;;;;5104407;28;20012;-68
2022/06/06 05:52:43;;;;;;;10.07;6.07;;;17.70;99.90;;;;;;5102697;28;20091;-68
2022/06/06 05:55:34;;;;;;;9.80;6.00;;;17.80;99.90;;;;;;5104173;28;20103;-68
2022/06/06 05:58:22;;;;;;;8.40;5.68;;;17.80;99.90;;;;;;5102699;28;20169;-68
2022/06/06 06:01:18;;;;;;;;;;;17.80;99.90;;;;;;5102634;28;20192;-68
2022/06/06 06:04:12;;;;;;;11.90;7.07;;;17.80;99.90;;;;;;5103819;28;19912;-68
2022/06/06 06:07:19;;;;;;;10.10;6.88;;;17.90;99.80;;;;;;5104095;28;20323;-69
2022/06/06 06:10:13;;;;;;;9.95;7.10;;;17.90;99.90;;;;;;5088493;28;20028;-68
2022/06/06 06:13:15;;;;;;;8.80;6.50;;;18.00;99.90;;;;;;5097558;28;20021;-68
2022/06/06 06:15:44;;;;;;;8.10;6.88;;;18.10;99.90;;;;;;5084659;28;20020;-69
2022/06/06 06:18:45;;;;;;;14.77;7.72;;;18.10;99.80;;;;;;5083454;28;20343;-68
2022/06/06 06:21:22;;;;;;;11.32;7.90;;;18.20;99.60;;;;;;5089838;28;20028;-69
2022/06/06 06:24:10;;;;;;;7.40;6.10;;;18.20;99.50;;;;;;5079176;28;20039;-68
2022/06/06 06:26:36;;;;;;;8.25;6.60;;;18.30;98.80;;;;;;5062816;28;20257;-69
2022/06/06 06:29:05;;;;;;;11.68;7.15;;;18.30;99.50;;;;;;5093533;28;20020;-69
2022/06/06 06:32:07;;;;;;;13.50;6.53;;;18.30;99.00;;;;;;5082378;28;20020;-70
2022/06/06 06:35:12;;;;;;;8.05;6.43;;;18.30;99.20;;;;;;5082074;28;20082;-69
2022/06/06 06:37:59;;;;;;;9.95;6.35;;;18.40;99.00;;;;;;5068733;28;20100;-69
2022/06/06 06:41:07;;;;;;;8.18;6.70;;;18.40;99.20;;;;;;5082161;28;20031;-69
2022/06/06 06:43:42;;;;;;;9.05;6.40;;;18.40;99.10;;;;;;5101915;28;20023;-69
2022/06/06 06:46:19;;;;;;;7.70;6.55;;;18.50;99.00;;;;;;5103021;28;20372;-69
2022/06/06 06:48:46;;;;;;;8.02;6.25;;;18.50;98.50;;;;;;5101512;28;20373;-69
2022/06/06 06:51:30;;;;;;;11.63;6.85;;;18.50;98.40;;;;;;5101394;28;20061;-69
2022/06/06 06:54:21;;;;;;;10.27;6.68;;;18.50;98.60;;;;;;5103176;28;20019;-69
2022/06/06 06:57:25;;;;;;;10.52;7.03;;;18.60;98.60;;;;;;5101588;28;20153;-69
2022/06/06 07:00:10;;;;;;;1999.90;999.90;;;18.50;98.40;;;;;;5102090;28;20027;-69
2022/06/06 07:09:30;;;;;;;1999.90;999.90;;;18.60;98.50;;;;;;5079115;28;20051;-70
2022/06/06 07:12:11;;;;;;;1999.90;999.90;;;18.40;98.40;;;;;;5100896;28;20212;-69
2022/06/06 07:15:12;;;;;;;1999.90;999.90;;;18.30;98.70;;;;;;5101670;28;20028;-70
2022/06/06 07:17:45;;;;;;;1999.90;999.90;;;18.30;98.80;;;;;;5101397;28;20039;-68
2022/06/06 07:20:13;;;;;;;1999.90;999.90;;;18.40;98.90;;;;;;5085084;28;20379;-68
2022/06/06 07:22:59;;;;;;;1999.90;999.90;;;18.50;98.40;;;;;;5084023;28;20047;-69
2022/06/06 07:25:47;;;;;;;1999.90;999.90;;;18.60;98.70;;;;;;5102488;28;20272;-68
2022/06/06 07:28:15;;;;;;;1999.90;999.90;;;18.30;98.50;;;;;;5102253;28;20020;-68
2022/06/06 07:31:03;;;;;;;1999.90;999.90;;;18.40;98.50;;;;;;5101652;28;20065;-68
2022/06/06 07:33:52;;;;;;;1999.90;999.90;;;18.50;98.20;;;;;;5101615;28;20343;-68
2022/06/06 07:36:29;;;;;;;1999.90;999.90;;;18.60;98.30;;;;;;5102143;28;20063;-69
2022/06/06 07:39:03;;;;;;;;;;;18.80;98.20;;;;;;5101735;28;20178;-69
2022/06/06 07:41:44;;;;;;;1999.90;999.90;;;18.90;97.90;;;;;;5100269;28;19919;-69
2022/06/06 07:44:15;;;;;;;1999.90;999.90;;;19.00;97.80;;;;;;5101814;28;20027;-70
2022/06/06 07:47:05;;;;;;;1999.90;999.90;;;19.10;97.40;;;;;;5102262;28;20040;-70
2022/06/06 07:49:55;;;;;;;1999.90;999.90;;;19.10;96.90;;;;;;5102445;28;20022;-69
2022/06/06 07:52:29;;;;;;;1999.90;999.90;;;19.00;96.70;;;;;;5101377;28;20008;-68
2022/06/06 07:55:19;;;;;;;1999.90;999.90;;;19.00;96.70;;;;;;5102251;28;20023;-68
2022/06/06 07:58:12;;;;;;;1999.90;999.90;;;19.10;97.30;;;;;;5083809;28;20319;-69
2022/06/06 08:00:38;;;;;;;1999.90;999.90;;;19.10;96.80;;;;;;5104675;28;20042;-70
2022/06/06 08:03:24;;;;;;;1999.90;999.90;;;19.00;96.70;;;;;;5105160;28;20256;-69
2022/06/06 08:06:30;;;;;;;1999.90;999.90;;;19.00;96.70;;;;;;5104959;28;20024;-69
2022/06/06 08:09:28;;;;;;;1999.90;999.90;;;19.00;96.10;;;;;;5105453;28;20020;-69
2022/06/06 08:12:19;;;;;;;1999.90;999.90;;;19.10;96.50;;;;;;5104388;28;20035;-69
2022/06/06 08:14:53;;;;;;;1999.90;999.90;;;19.10;95.60;;;;;;5106135;28;20101;-67
2022/06/06 08:17:47;;;;;;;1999.90;999.90;;;19.30;96.70;;;;;;5106273;28;20226;-69
2022/06/06 08:20:42;;;;;;;1999.90;999.90;;;19.40;96.90;;;;;;5105048;28;20319;-69
2022/06/06 08:23:08;;;;;;;38.55;6.93;;;19.50;95.70;;;;;;5105044;28;20020;-70
2022/06/06 08:25:36;;;;;;;6.07;4.70;;;19.50;93.90;;;;;;5105004;28;20084;-70
2022/06/06 08:28:02;;;;;;;6.63;4.47;;;19.60;95.20;;;;;;5105789;28;20028;-69
2022/06/06 08:30:28;;;;;;;7.20;4.68;;;19.70;94.60;;;;;;5121730;28;20027;-69
2022/06/06 08:32:54;;;;;;;5.43;4.13;;;19.80;94.10;;;;;;5104287;28;20039;-67
2022/06/06 08:35:19;;;;;;;5.93;4.47;;;19.80;93.40;;;;;;5105757;28;20211;-67
2022/06/06 08:38:24;;;;;;;6.87;4.57;;;19.70;93.90;;;;;;5104296;28;20028;-67
2022/06/06 08:40:52;;;;;;;7.53;4.63;;;19.90;94.20;;;;;;5102974;28;20051;-66
2022/06/06 08:43:55;;;;;;;7.45;5.38;;;20.00;94.00;;;;;;5104162;28;20020;-67
2022/06/06 08:46:47;;;;;;;6.28;4.90;;;20.10;94.30;;;;;;5105376;28;20032;-67
2022/06/06 08:52:53;;;;;;;5.25;3.95;;;20.10;92.50;;;;;;5103873;28;20094;-67
2022/06/06 08:55:53;;;;;;;6.93;4.75;;;20.30;93.00;;;;;;5104519;28;20357;-68
2022/06/06 08:58:24;;;;;;;9.10;5.32;;;20.20;92.30;;;;;;5090210;28;20343;-67
2022/06/06 09:01:01;;;;;;;6.85;4.28;;;20.00;92.90;;;;;;5104549;28;20020;-67
2022/06/06 09:03:45;;;;;;;;;;;20.00;93.10;;;;;;5105634;28;20083;-68
2022/06/06 09:06:24;;;;;;;7.13;4.55;;;20.00;92.20;;;;;;5105017;28;19908;-68
2022/06/06 09:09:36;;;;;;;7.03;4.47;;;20.10;92.30;;;;;;5103933;28;20027;-68
2022/06/06 09:12:52;;;;;;;7.25;3.97;;;20.20;92.50;;;;;;5103372;28;20028;-67
2022/06/06 09:15:56;;;;;;;6.05;4.03;;;20.50;93.30;;;;;;5105360;28;20258;-68
2022/06/06 09:18:49;;;;;;;5.22;3.47;;;20.70;90.60;;;;;;5089078;28;20032;-68
2022/06/06 09:21:36;;;;;;;4.85;3.50;;;20.90;91.30;;;;;;5104279;28;20086;-68
2022/06/06 09:25:10;;;;;;;8.10;3.92;;;20.90;90.40;;;;;;5104815;28;20079;-68
2022/06/06 09:28:01;;;;;;;4.40;3.00;;;20.90;90.00;;;;;;5064913;28;20025;-68
2022/06/06 09:30:45;;;;;;;5.60;3.25;;;21.00;90.20;;;;;;5083348;28;20016;-68
2022/06/06 09:34:03;;;;;;;22.33;6.90;;;21.00;90.00;;;;;;5083376;28;20028;-68
2022/06/06 09:37:08;;;;;;;6.60;3.92;;;21.00;91.00;;;;;;5092557;28;20266;-68
2022/06/06 09:39:35;;;;;;;5.53;3.95;;;21.00;90.70;;;;;;5083188;28;20029;-68
2022/06/06 09:42:25;;;;;;;6.65;3.55;;;21.00;90.10;;;;;;5083497;28;20032;-68
2022/06/06 09:45:33;;;;;;;4.72;2.95;;;21.10;90.10;;;;;;5083785;28;20308;-68
2022/06/06 09:48:47;;;;;;;4.07;3.15;;;21.30;90.30;;;;;;5085432;28;20334;-68
2022/06/06 09:51:29;;;;;;;5.32;3.50;;;21.50;90.10;;;;;;5085434;28;20038;-68
2022/06/06 10:00:20;;;;;;;6.90;4.10;;;21.70;90.20;;;;;;5103407;28;20047;-68
2022/06/06 10:03:16;;;;;;;108.23;41.23;;;21.80;89.30;;;;;;5102255;28;20020;-67
2022/06/06 10:06:20;;;;;;;5.70;3.45;;;21.80;89.10;;;;;;5103895;28;20121;-67
2022/06/06 10:09:09;;;;;;;452.92;122.85;;;21.80;90.10;;;;;;5103491;28;20117;-68
2022/06/06 10:12:13;;;;;;;1370.00;130.23;;;21.80;90.40;;;;;;5101888;28;20020;-68
2022/06/06 10:15:23;;;;;;;5.28;3.72;;;21.90;87.80;;;;;;5102561;28;20028;-68
2022/06/06 10:18:37;;;;;;;5.10;3.25;;;21.80;87.00;;;;;;5103494;28;20088;-68
2022/06/06 10:21:28;;;;;;;3.85;3.45;;;21.70;87.60;;;;;;5102522;28;20036;-68
2022/06/06 10:24:09;;;;;;;5.22;3.53;;;21.80;90.30;;;;;;5092461;28;20036;-67
2022/06/06 10:27:02;;;;;;;187.65;93.07;;;21.90;87.30;;;;;;5091205;28;20034;-67
2022/06/06 10:30:12;;;;;;;1999.90;999.90;;;22.00;86.20;;;;;;5095974;28;20231;-68
2022/06/06 10:33:14;;;;;;;1999.90;999.90;;;22.10;86.60;;;;;;5075089;28;20054;-68
2022/06/06 10:36:24;;;;;;;1999.90;999.90;;;22.30;87.30;;;;;;5099953;28;20311;-68
2022/06/06 10:39:06;;;;;;;1999.90;999.90;;;22.10;82.20;;;;;;5072575;28;20043;-68
2022/06/06 10:42:09;;;;;;;1999.90;999.90;;;22.20;82.30;;;;;;5081122;28;20036;-68
2022/06/06 10:45:05;;;;;;;1999.90;999.90;;;22.10;81.40;;;;;;5095797;28;20227;-69
2022/06/06 10:48:15;;;;;;;1999.90;999.90;;;22.20;85.40;;;;;;5102135;28;20021;-70
2022/06/06 10:54:33;;;;;;;73.43;70.25;;;22.30;80.70;;;;;;5082796;28;20122;-70
2022/06/06 10:57:55;;;;;;;1999.90;999.90;;;22.40;79.80;;;;;;5081479;28;20032;-70
2022/06/06 11:00:58;;;;;;;1999.90;999.90;;;22.50;80.80;;;;;;5073277;28;20069;-68
2022/06/06 11:04:21;;;;;;;1999.90;999.90;;;22.60;80.90;;;;;;5102827;28;20077;-70
2022/06/06 11:06:56;;;;;;;1999.90;999.90;;;22.70;78.70;;;;;;5102805;28;20215;-70
2022/06/06 11:10:07;;;;;;;1999.90;999.90;;;22.80;80.20;;;;;;5102751;28;20027;-70
2022/06/06 11:12:50;;;;;;;1999.90;999.90;;;23.00;78.40;;;;;;5046493;28;20064;-70
2022/06/06 11:15:15;;;;;;;1999.90;999.90;;;23.20;77.70;;;;;;5085229;28;20024;-71
2022/06/06 11:18:31;;;;;;;1999.90;999.90;;;23.20;77.80;;;;;;5072826;28;20057;-70
2022/06/06 11:21:35;;;;;;;1999.90;999.90;;;23.30;80.40;;;;;;5088108;28;20024;-71
2022/06/06 11:24:22;;;;;;;1999.90;999.90;;;23.30;75.50;;;;;;5089989;28;20060;-71
2022/06/06 11:27:43;;;;;;;3.22;2.08;;;23.10;76.50;;;;;;5086110;28;20027;-70
2022/06/06 11:30:30;;;;;;;3.53;2.10;;;23.20;75.80;;;;;;5069978;28;20034;-70
2022/06/06 11:33:39;;;;;;;4.90;2.70;;;23.50;75.80;;;;;;5095023;28;20012;-68
2022/06/06 11:36:36;;;;;;;;;;;23.50;75.50;;;;;;5092782;28;20331;-70
2022/06/06 11:39:55;;;;;;;2.95;2.38;;;23.50;75.90;;;;;;5094886;28;19920;-68
2022/06/06 11:42:26;;;;;;;;;;;23.40;73.90;;;;;;5073990;28;20033;-68
2022/06/06 11:45:09;;;;;;;2.45;1.88;;;23.30;73.80;;;;;;5081885;28;19916;-68
2022/06/06 11:48:15;;;;;;;9.45;2.83;;;23.40;73.10;;;;;;5080572;28;20073;-68
2022/06/06 11:51:18;;;;;;;2.40;2.17;;;23.40;76.20;;;;;;5080045;28;20039;-68
2022/06/06 11:54:25;;;;;;;6.40;2.25;;;23.50;75.80;;;;;;5081858;28;20039;-68
2022/06/06 11:57:03;;;;;;;3.90;2.33;;;23.70;75.70;;;;;;5081847;28;20028;-68
2022/06/06 11:59:44;;;;;;;2.95;1.85;;;23.80;74.10;;;;;;5084921;28;20032;-67
2022/06/06 12:02:14;;;;;;;5.40;1.95;;;;;;;;;;5101128;28;20058;-68
2022/06/06 12:04:48;;;;;;;3.53;1.65;;;;;;;;;;5101867;28;20038;-68
2022/06/06 12:07:58;;;;;;;1.67;1.58;;;;;;;;;;5101341;28;20036;-68
2022/06/06 12:10:31;;;;;;;1.67;1.40;;;;;;;;;;5100625;28;20284;-68
2022/06/06 12:13:34;;;;;;;2.65;1.60;;;;;;;;;;5099611;28;20022;-68
2022/06/06 12:16:08;;;;;;;2.75;1.63;;;;;;;;;;5101927;28;20028;-68
2022/06/06 12:18:50;;;;;;;2.15;1.50;;;;;;;;;;5100546;28;20055;-67
2022/06/06 12:21:40;;;;;;;5.15;2.20;;;;;;;;;;5101079;28;20028;-67
2022/06/06 12:24:10;;;;;;;4.47;2.42;;;;;;;;;;5101628;28;20028;-67
2022/06/06 12:27:14;;;;;;;2.45;1.75;;;;;;;;;;5100866;28;20034;-68
2022/06/06 12:30:03;;;;;;;2.83;2.03;;;;;;;;;;5089191;28;20323;-68
2022/06/06 12:32:49;;;;;;;3.45;1.80;;;;;;;;;;5099822;28;20020;-69
2022/06/06 12:35:27;;;;;;;4.60;1.65;;;;;;;;;;5101676;28;20077;-69
2022/06/06 12:38:08;;;;;;;1.50;1.40;;;;;;;;;;5100555;28;20262;-69
2022/06/06 12:40:44;;;;;;;2.15;1.38;;;;;;;;;;5099929;28;20035;-68
2022/06/06 12:43:47;;;;;;;7.22;1.60;;;;;;;;;;5100500;28;20032;-69
2022/06/06 12:46:32;;;;;;;1.83;1.33;;;;;;;;;;5102560;28;20031;-70
2022/06/06 12:49:34;;;;;;;3.97;1.75;;;;;;;;;;5105406;28;20020;-69
2022/06/06 12:52:18;;;;;;;3.17;1.90;;;;;;;;;;5042237;28;20044;-69
2022/06/06 12:58:07;;;;;;;2.75;1.55;;;;;;;;;;5105420;28;20060;-69
2022/06/06 13:03:26;;;;;;;3.28;1.58;;;;;;;;;;5105079;28;20362;-69
2022/06/06 13:05:52;;;;;;;1.90;1.80;;;;;;;;;;5105121;28;20069;-69
2022/06/06 13:08:36;;;;;;;2.58;1.48;;;;;;;;;;5104827;28;20028;-69
2022/06/06 13:11:25;;;;;;;3.47;1.40;;;;;;;;;;5103353;28;20351;-69
2022/06/06 13:14:32;;;;;;;1.35;1.25;;;;;;;;;;5103073;28;20024;-69
2022/06/06 13:17:18;;;;;;;1.05;1.05;;;;;;;;;;5103482;28;20028;-68
2022/06/06 13:20:04;;;;;;;3.95;1.67;;;;;;;;;;5104230;28;20044;-69
2022/06/06 13:22:42;;;;;;;1.30;1.20;;;;;;;;;;5104175;28;20024;-69
2022/06/06 13:25:32;;;;;;;1.55;1.40;;;;;;;;;;5103605;28;20035;-69
2022/06/06 13:28:00;;;;;;;2.67;1.50;;;;;;;;;;5088118;28;20027;-68
2022/06/06 13:30:36;;;;;;;2.45;1.40;;;;;;;;;;5104264;28;20027;-68
2022/06/06 13:33:17;;;;;;;3.28;1.55;;;;;;;;;;5099683;28;20032;-68
2022/06/06 13:36:12;;;;;;;1.60;1.27;;;;;;;;;;5083240;28;20343;-69
2022/06/06 13:39:00;;;;;;;1.73;1.48;;;;;;;;;;5085544;28;20033;-69
2022/06/06 13:41:45;;;;;;;2.53;1.50;;;;;;;;;;5088319;28;20019;-68
2022/06/06 13:44:26;;;;;;;1.50;1.30;;;;;;;;;;5104333;28;20028;-69
2022/06/06 13:46:56;;;;;;;1.40;1.30;;;;;;;;;;5104058;28;20265;-68
2022/06/06 13:50:01;;;;;;;3.30;1.65;;;;;;;;;;5103204;28;20089;-69
2022/06/06 14:00:25;;;;;;;2.60;1.52;;;;;;;;;;5294049;22;20048;-69
2022/06/06 14:03:12;;;;;;;2.78;1.52;;;;;;;;;;5055673;28;20076;-70
2022/06/06 14:05:57;;;;;;;3.42;1.63;;;;;;;;;;5062365;28;20051;-73
2022/06/06 14:08:24;;;;;;;8.13;2.75;;;;;;;;;;5055774;28;20104;-72
2022/06/06 14:10:53;;;;;;;3.40;1.90;;;;;;;;;;5032365;28;20238;-70
2022/06/06 14:13:31;;;;;;;3.30;1.40;;;;;;;;;;5043680;28;20032;-70
2022/06/06 14:15:58;;;;;;;1.52;1.42;;;;;;;;;;5041836;28;20029;-70
2022/06/06 14:18:42;;;;;;;2.30;1.60;;;;;;;;;;5042419;28;20071;-69
2022/06/06 14:21:08;;;;;;;5.88;1.52;;;;;;;;;;5041885;28;20041;-70
2022/06/06 14:23:37;;;;;;;2.90;1.30;;;;;;;;;;5042199;28;20029;-70
2022/06/06 14:26:05;;;;;;;1.75;1.30;;;;;;;;;;5043113;28;20038;-70
2022/06/06 14:28:37;;;;;;;9.63;5.95;;;;;;;;;;5040808;28;20066;-70
2022/06/06 14:31:18;;;;;;;6.28;3.70;;;;;;;;;;5043162;28;20029;-70
2022/06/06 14:33:52;;;;;;;8.15;3.47;;;;;;;;;;5042221;28;20056;-69
2022/06/06 14:36:20;;;;;;;8.20;2.22;;;;;;;;;;5041839;28;20200;-70
2022/06/06 14:38:56;;;;;;;6.60;2.65;;;;;;;;;;5042847;28;20029;-70
2022/06/06 14:41:23;;;;;;;2.47;1.60;;;;;;;;;;5042160;28;20044;-70
2022/06/06 14:43:50;;;;;;;2.22;1.80;;;;;;;;;;5042881;28;20033;-70
2022/06/06 14:46:16;;;;;;;6.93;1.90;;;;;;;;;;5041843;28;20271;-70
2022/06/06 14:48:44;;;;;;;3.40;1.55;;;;;;;;;;5041613;28;20060;-71
2022/06/06 14:51:12;;;;;;;2.17;1.60;;;;;;;;;;5041701;28;20021;-70
2022/06/06 14:53:53;;;;;;;2.85;1.55;;;;;;;;;;5025490;28;20025;-70
2022/06/06 14:56:19;;;;;;;84.22;79.88;;;;;;;;;;5025945;28;20040;-71
2022/06/06 14:58:59;;;;;;;3.20;1.90;;;;;;;;;;5042472;28;20379;-71
2022/06/06 15:01:26;;;;;;;3.50;1.70;;;;;;;;;;5025698;28;20040;-71
2022/06/06 15:03:54;;;;;;;7.25;2.08;;;;;;;;;;5041552;28;20028;-71
2022/06/06 15:06:25;;;;;;;3.80;1.88;;;;;;;;;;5041474;28;20029;-71
2022/06/06 15:09:12;;;;;;;4.78;2.20;;;;;;;;;;5040326;28;20036;-72
2022/06/06 15:11:38;;;;;;;6.63;2.00;;;;;;;;;;5027411;28;20060;-69
2022/06/06 15:14:26;;;;;;;311.42;209.85;;;;;;;;;;5042495;28;20032;-71